sensor_id;sensor_type;location;lat;lon;timestamp;P1;durP1;ratioP1;P2;durP2;ratioP2
64342;SDS011;50675;53.530;-6.312;2022-07-11T00:02:53;4.75;;;2.13;;
64342;SDS011;50675;53.530;-6.312;2022-07-11T00:05:18;3.60;;;2.00;;
64342;SDS011;50675;53.530;-6.312;2022-07-11T00:07:45;3.25;;;1.95;;
64342;SDS011;50675;53.530;-6.312;2022-07-11T00:10:12;3.85;;;2.17;;
64342;SDS011;50675;53.530;-6.312;2022-07-11T00:12:38;3.55;;;2.05;;
64342;SDS011;50675;53.530;-6.312;2022-07-11T00:15:04;4.68;;;2.67;;
64342;SDS011;50675;53.530;-6.312;2022-07-11T00:17:29;5.82;;;2.30;;
64342;SDS011;50675;53.530;-6.312;2022-07-11T00:19:55;3.97;;;2.22;;
64342;SDS011;50675;53.530;-6.312;2022-07-11T00:22:21;3.08;;;2.03;;
64342;SDS011;50675;53.530;-6.312;2022-07-11T00:24:46;2.95;;;1.83;;
64342;SDS011;50675;53.530;-6.312;2022-07-11T00:27:12;3.65;;;2.13;;
64342;SDS011;50675;53.530;-6.312;2022-07-11T00:29:39;3.63;;;2.30;;
64342;SDS011;50675;53.530;-6.312;2022-07-11T00:32:04;5.15;;;2.30;;
64342;SDS011;50675;53.530;-6.312;2022-07-11T00:34:30;4.28;;;2.67;;
64342;SDS011;50675;53.530;-6.312;2022-07-11T00:36:56;3.40;;;2.10;;
64342;SDS011;50675;53.530;-6.312;2022-07-11T00:39:22;3.30;;;2.17;;
64342;SDS011;50675;53.530;-6.312;2022-07-11T00:41:48;3.53;;;2.20;;
64342;SDS011;50675;53.530;-6.312;2022-07-11T00:44:13;3.70;;;2.30;;
64342;SDS011;50675;53.530;-6.312;2022-07-11T00:46:39;2.88;;;1.83;;
64342;SDS011;50675;53.530;-6.312;2022-07-11T00:49:06;5.13;;;2.10;;
64342;SDS011;50675;53.530;-6.312;2022-07-11T00:51:31;3.35;;;2.13;;
64342;SDS011;50675;53.530;-6.312;2022-07-11T00:53:57;5.47;;;2.15;;
64342;SDS011;50675;53.530;-6.312;2022-07-11T00:56:26;2.88;;;1.92;;
64342;SDS011;50675;53.530;-6.312;2022-07-11T00:58:58;3.83;;;2.42;;
64342;SDS011;50675;53.530;-6.312;2022-07-11T01:01:24;3.25;;;2.03;;
64342;SDS011;50675;53.530;-6.312;2022-07-11T01:03:50;6.32;;;2.30;;
64342;SDS011;50675;53.530;-6.312;2022-07-11T01:06:16;2.97;;;1.95;;
64342;SDS011;50675;53.530;-6.312;2022-07-11T01:08:41;4.40;;;2.35;;
64342;SDS011;50675;53.530;-6.312;2022-07-11T01:11:09;4.57;;;2.28;;
64342;SDS011;50675;53.530;-6.312;2022-07-11T01:13:38;3.80;;;2.38;;
64342;SDS011;50675;53.530;-6.312;2022-07-11T01:18:33;4.57;;;2.50;;
64342;SDS011;50675;53.530;-6.312;2022-07-11T01:20:59;4.50;;;2.65;;
64342;SDS011;50675;53.530;-6.312;2022-07-11T01:23:24;4.82;;;2.63;;
64342;SDS011;50675;53.530;-6.312;2022-07-11T01:25:50;5.05;;;2.50;;
64342;SDS011;50675;53.530;-6.312;2022-07-11T01:28:16;4.70;;;2.63;;
64342;SDS011;50675;53.530;-6.312;2022-07-11T01:30:42;4.38;;;2.70;;
64342;SDS011;50675;53.530;-6.312;2022-07-11T01:33:08;5.18;;;2.50;;
64342;SDS011;50675;53.530;-6.312;2022-07-11T01:35:34;4.72;;;2.40;;
64342;SDS011;50675;53.530;-6.312;2022-07-11T01:37:59;5.47;;;2.55;;
64342;SDS011;50675;53.530;-6.312;2022-07-11T01:40:25;7.00;;;2.63;;
64342;SDS011;50675;53.530;-6.312;2022-07-11T01:42:51;5.60;;;2.88;;
64342;SDS011;50675;53.530;-6.312;2022-07-11T01:45:17;4.18;;;2.70;;
64342;SDS011;50675;53.530;-6.312;2022-07-11T01:47:42;5.55;;;2.83;;
64342;SDS011;50675;53.530;-6.312;2022-07-11T01:50:08;6.00;;;2.83;;
64342;SDS011;50675;53.530;-6.312;2022-07-11T01:52:34;5.57;;;2.67;;
64342;SDS011;50675;53.530;-6.312;2022-07-11T01:54:59;6.35;;;2.90;;
64342;SDS011;50675;53.530;-6.312;2022-07-11T01:57:25;4.93;;;2.70;;
64342;SDS011;50675;53.530;-6.312;2022-07-11T01:59:51;4.22;;;2.50;;
64342;SDS011;50675;53.530;-6.312;2022-07-11T02:02:17;4.90;;;2.80;;
64342;SDS011;50675;53.530;-6.312;2022-07-11T02:04:42;4.82;;;2.47;;
64342;SDS011;50675;53.530;-6.312;2022-07-11T02:07:08;5.78;;;2.85;;
64342;SDS011;50675;53.530;-6.312;2022-07-11T02:09:37;6.80;;;3.10;;
64342;SDS011;50675;53.530;-6.312;2022-07-11T02:12:04;6.03;;;3.33;;
64342;SDS011;50675;53.530;-6.312;2022-07-11T02:14:31;5.55;;;2.70;;
64342;SDS011;50675;53.530;-6.312;2022-07-11T02:16:57;4.93;;;2.90;;
64342;SDS011;50675;53.530;-6.312;2022-07-11T02:19:23;5.20;;;2.88;;
64342;SDS011;50675;53.530;-6.312;2022-07-11T02:21:48;5.82;;;3.05;;
64342;SDS011;50675;53.530;-6.312;2022-07-11T02:24:14;6.43;;;2.70;;
64342;SDS011;50675;53.530;-6.312;2022-07-11T02:26:40;6.88;;;3.10;;
64342;SDS011;50675;53.530;-6.312;2022-07-11T02:29:06;6.97;;;3.38;;
64342;SDS011;50675;53.530;-6.312;2022-07-11T02:31:31;5.55;;;3.30;;
64342;SDS011;50675;53.530;-6.312;2022-07-11T02:33:57;5.60;;;3.08;;
64342;SDS011;50675;53.530;-6.312;2022-07-11T02:36:23;6.25;;;3.05;;
64342;SDS011;50675;53.530;-6.312;2022-07-11T02:38:48;6.07;;;3.00;;
64342;SDS011;50675;53.530;-6.312;2022-07-11T02:41:14;5.25;;;2.83;;
64342;SDS011;50675;53.530;-6.312;2022-07-11T02:43:40;4.82;;;2.80;;
64342;SDS011;50675;53.530;-6.312;2022-07-11T02:46:06;4.18;;;2.67;;
64342;SDS011;50675;53.530;-6.312;2022-07-11T02:48:31;6.13;;;3.35;;
64342;SDS011;50675;53.530;-6.312;2022-07-11T02:50:57;6.95;;;3.72;;
64342;SDS011;50675;53.530;-6.312;2022-07-11T02:53:23;8.15;;;4.10;;
64342;SDS011;50675;53.530;-6.312;2022-07-11T02:55:49;7.80;;;3.70;;
64342;SDS011;50675;53.530;-6.312;2022-07-11T02:58:14;8.75;;;4.32;;
64342;SDS011;50675;53.530;-6.312;2022-07-11T03:00:40;11.43;;;5.40;;
64342;SDS011;50675;53.530;-6.312;2022-07-11T03:03:06;12.13;;;5.40;;
64342;SDS011;50675;53.530;-6.312;2022-07-11T03:05:31;14.73;;;7.28;;
64342;SDS011;50675;53.530;-6.312;2022-07-11T03:07:57;10.70;;;4.82;;
64342;SDS011;50675;53.530;-6.312;2022-07-11T03:10:23;13.48;;;6.80;;
64342;SDS011;50675;53.530;-6.312;2022-07-11T03:12:50;16.67;;;5.78;;
64342;SDS011;50675;53.530;-6.312;2022-07-11T03:15:16;10.13;;;4.95;;
64342;SDS011;50675;53.530;-6.312;2022-07-11T03:17:42;9.85;;;4.97;;
64342;SDS011;50675;53.530;-6.312;2022-07-11T03:20:08;11.02;;;5.35;;
64342;SDS011;50675;53.530;-6.312;2022-07-11T03:22:35;11.18;;;5.82;;
64342;SDS011;50675;53.530;-6.312;2022-07-11T03:25:00;12.43;;;5.75;;
64342;SDS011;50675;53.530;-6.312;2022-07-11T03:27:30;9.52;;;4.65;;
64342;SDS011;50675;53.530;-6.312;2022-07-11T03:29:56;7.80;;;4.15;;
64342;SDS011;50675;53.530;-6.312;2022-07-11T03:32:22;9.80;;;5.07;;
64342;SDS011;50675;53.530;-6.312;2022-07-11T03:34:48;10.50;;;5.70;;
64342;SDS011;50675;53.530;-6.312;2022-07-11T03:37:33;9.32;;;4.93;;
64342;SDS011;50675;53.530;-6.312;2022-07-11T03:39:58;13.68;;;6.63;;
64342;SDS011;50675;53.530;-6.312;2022-07-11T03:42:25;12.02;;;5.47;;
64342;SDS011;50675;53.530;-6.312;2022-07-11T03:44:51;13.30;;;5.35;;
64342;SDS011;50675;53.530;-6.312;2022-07-11T03:47:17;9.65;;;5.07;;
64342;SDS011;50675;53.530;-6.312;2022-07-11T03:49:43;9.13;;;4.00;;
64342;SDS011;50675;53.530;-6.312;2022-07-11T03:52:09;8.35;;;4.30;;
64342;SDS011;50675;53.530;-6.312;2022-07-11T03:54:35;8.35;;;3.67;;
64342;SDS011;50675;53.530;-6.312;2022-07-11T03:57:00;8.52;;;3.53;;
64342;SDS011;50675;53.530;-6.312;2022-07-11T03:59:26;7.07;;;3.55;;
64342;SDS011;50675;53.530;-6.312;2022-07-11T04:01:51;6.82;;;3.20;;
64342;SDS011;50675;53.530;-6.312;2022-07-11T04:04:17;5.25;;;2.60;;
64342;SDS011;50675;53.530;-6.312;2022-07-11T04:06:43;5.28;;;2.47;;
64342;SDS011;50675;53.530;-6.312;2022-07-11T04:09:09;6.72;;;2.72;;
64342;SDS011;50675;53.530;-6.312;2022-07-11T04:11:35;4.80;;;2.70;;
64342;SDS011;50675;53.530;-6.312;2022-07-11T04:14:01;7.00;;;2.60;;
64342;SDS011;50675;53.530;-6.312;2022-07-11T04:16:27;6.13;;;2.97;;
64342;SDS011;50675;53.530;-6.312;2022-07-11T04:18:53;7.80;;;3.17;;
64342;SDS011;50675;53.530;-6.312;2022-07-11T04:21:18;5.18;;;2.90;;
64342;SDS011;50675;53.530;-6.312;2022-07-11T04:23:44;5.15;;;2.80;;
64342;SDS011;50675;53.530;-6.312;2022-07-11T04:26:10;6.43;;;2.90;;
64342;SDS011;50675;53.530;-6.312;2022-07-11T04:28:36;5.38;;;2.78;;
64342;SDS011;50675;53.530;-6.312;2022-07-11T04:31:01;7.80;;;3.20;;
64342;SDS011;50675;53.530;-6.312;2022-07-11T04:33:27;11.80;;;4.32;;
64342;SDS011;50675;53.530;-6.312;2022-07-11T04:35:53;12.13;;;3.58;;
64342;SDS011;50675;53.530;-6.312;2022-07-11T04:38:19;8.30;;;3.63;;
64342;SDS011;50675;53.530;-6.312;2022-07-11T04:40:47;9.82;;;3.65;;
64342;SDS011;50675;53.530;-6.312;2022-07-11T04:43:13;8.35;;;3.33;;
64342;SDS011;50675;53.530;-6.312;2022-07-11T04:45:40;10.32;;;3.90;;
64342;SDS011;50675;53.530;-6.312;2022-07-11T04:48:05;6.75;;;3.65;;
64342;SDS011;50675;53.530;-6.312;2022-07-11T04:50:31;35.15;;;4.85;;
64342;SDS011;50675;53.530;-6.312;2022-07-11T04:52:57;21.83;;;4.82;;
64342;SDS011;50675;53.530;-6.312;2022-07-11T04:55:22;42.35;;;5.10;;
64342;SDS011;50675;53.530;-6.312;2022-07-11T04:57:48;11.68;;;4.28;;
64342;SDS011;50675;53.530;-6.312;2022-07-11T05:00:14;10.32;;;3.50;;
64342;SDS011;50675;53.530;-6.312;2022-07-11T05:02:40;10.27;;;3.50;;
64342;SDS011;50675;53.530;-6.312;2022-07-11T05:05:06;5.90;;;3.15;;
64342;SDS011;50675;53.530;-6.312;2022-07-11T05:07:32;15.23;;;3.50;;
64342;SDS011;50675;53.530;-6.312;2022-07-11T05:09:57;8.32;;;2.80;;
64342;SDS011;50675;53.530;-6.312;2022-07-11T05:12:23;11.00;;;2.88;;
64342;SDS011;50675;53.530;-6.312;2022-07-11T05:14:49;10.05;;;2.92;;
64342;SDS011;50675;53.530;-6.312;2022-07-11T05:17:14;13.27;;;3.08;;
64342;SDS011;50675;53.530;-6.312;2022-07-11T05:19:40;4.88;;;2.22;;
64342;SDS011;50675;53.530;-6.312;2022-07-11T05:22:06;8.15;;;2.58;;
64342;SDS011;50675;53.530;-6.312;2022-07-11T05:24:32;8.52;;;2.50;;
64342;SDS011;50675;53.530;-6.312;2022-07-11T05:26:57;6.13;;;2.17;;
64342;SDS011;50675;53.530;-6.312;2022-07-11T05:29:23;13.02;;;2.83;;
64342;SDS011;50675;53.530;-6.312;2022-07-11T05:31:48;6.95;;;2.13;;
64342;SDS011;50675;53.530;-6.312;2022-07-11T05:34:18;6.43;;;2.58;;
64342;SDS011;50675;53.530;-6.312;2022-07-11T05:36:45;7.93;;;2.38;;
64342;SDS011;50675;53.530;-6.312;2022-07-11T05:39:11;7.95;;;2.00;;
64342;SDS011;50675;53.530;-6.312;2022-07-11T05:41:37;8.27;;;2.90;;
64342;SDS011;50675;53.530;-6.312;2022-07-11T05:44:02;10.57;;;2.85;;
64342;SDS011;50675;53.530;-6.312;2022-07-11T05:46:28;19.48;;;3.50;;
64342;SDS011;50675;53.530;-6.312;2022-07-11T05:48:54;7.70;;;3.50;;
64342;SDS011;50675;53.530;-6.312;2022-07-11T05:51:20;26.77;;;3.20;;
64342;SDS011;50675;53.530;-6.312;2022-07-11T05:53:45;26.02;;;3.50;;
64342;SDS011;50675;53.530;-6.312;2022-07-11T05:56:11;15.90;;;3.65;;
64342;SDS011;50675;53.530;-6.312;2022-07-11T05:58:37;19.40;;;4.00;;
64342;SDS011;50675;53.530;-6.312;2022-07-11T06:01:03;5.93;;;2.25;;
64342;SDS011;50675;53.530;-6.312;2022-07-11T06:03:29;8.07;;;2.42;;
64342;SDS011;50675;53.530;-6.312;2022-07-11T06:05:54;5.15;;;2.50;;
64342;SDS011;50675;53.530;-6.312;2022-07-11T06:08:20;6.50;;;2.25;;
64342;SDS011;50675;53.530;-6.312;2022-07-11T06:11:04;8.20;;;2.00;;
64342;SDS011;50675;53.530;-6.312;2022-07-11T06:13:30;6.65;;;2.10;;
64342;SDS011;50675;53.530;-6.312;2022-07-11T06:15:56;5.97;;;2.00;;
64342;SDS011;50675;53.530;-6.312;2022-07-11T06:18:21;4.90;;;2.20;;
64342;SDS011;50675;53.530;-6.312;2022-07-11T06:20:48;5.28;;;2.42;;
64342;SDS011;50675;53.530;-6.312;2022-07-11T06:23:14;5.22;;;2.30;;
64342;SDS011;50675;53.530;-6.312;2022-07-11T06:25:40;5.88;;;2.42;;
64342;SDS011;50675;53.530;-6.312;2022-07-11T06:28:05;7.10;;;2.30;;
64342;SDS011;50675;53.530;-6.312;2022-07-11T06:30:32;5.47;;;2.60;;
64342;SDS011;50675;53.530;-6.312;2022-07-11T06:32:58;5.95;;;2.30;;
64342;SDS011;50675;53.530;-6.312;2022-07-11T06:35:24;5.45;;;2.75;;
64342;SDS011;50675;53.530;-6.312;2022-07-11T06:37:49;5.05;;;2.75;;
64342;SDS011;50675;53.530;-6.312;2022-07-11T06:40:15;4.43;;;2.40;;
64342;SDS011;50675;53.530;-6.312;2022-07-11T06:42:45;4.55;;;2.33;;
64342;SDS011;50675;53.530;-6.312;2022-07-11T06:45:11;4.95;;;2.60;;
64342;SDS011;50675;53.530;-6.312;2022-07-11T06:47:37;6.13;;;2.35;;
64342;SDS011;50675;53.530;-6.312;2022-07-11T06:50:03;6.32;;;2.80;;
64342;SDS011;50675;53.530;-6.312;2022-07-11T06:52:29;4.80;;;3.00;;
64342;SDS011;50675;53.530;-6.312;2022-07-11T06:54:54;7.00;;;2.92;;
64342;SDS011;50675;53.530;-6.312;2022-07-11T06:57:20;6.88;;;3.10;;
64342;SDS011;50675;53.530;-6.312;2022-07-11T06:59:45;5.32;;;3.15;;
64342;SDS011;50675;53.530;-6.312;2022-07-11T07:02:11;5.70;;;2.90;;
64342;SDS011;50675;53.530;-6.312;2022-07-11T07:04:37;6.75;;;2.97;;
64342;SDS011;50675;53.530;-6.312;2022-07-11T07:07:03;7.85;;;3.42;;
64342;SDS011;50675;53.530;-6.312;2022-07-11T07:09:29;6.32;;;3.28;;
64342;SDS011;50675;53.530;-6.312;2022-07-11T07:11:55;6.90;;;3.38;;
64342;SDS011;50675;53.530;-6.312;2022-07-11T07:14:21;5.20;;;3.13;;
64342;SDS011;50675;53.530;-6.312;2022-07-11T07:16:47;6.35;;;3.53;;
64342;SDS011;50675;53.530;-6.312;2022-07-11T07:19:13;5.68;;;3.63;;
64342;SDS011;50675;53.530;-6.312;2022-07-11T07:21:39;8.82;;;3.90;;
64342;SDS011;50675;53.530;-6.312;2022-07-11T07:24:06;8.52;;;3.55;;
64342;SDS011;50675;53.530;-6.312;2022-07-11T07:26:32;6.20;;;3.67;;
64342;SDS011;50675;53.530;-6.312;2022-07-11T07:28:58;5.55;;;3.35;;
64342;SDS011;50675;53.530;-6.312;2022-07-11T07:31:24;6.85;;;3.70;;
64342;SDS011;50675;53.530;-6.312;2022-07-11T07:33:49;6.15;;;3.67;;
64342;SDS011;50675;53.530;-6.312;2022-07-11T07:36:15;6.60;;;3.85;;
64342;SDS011;50675;53.530;-6.312;2022-07-11T07:38:42;6.50;;;4.20;;
64342;SDS011;50675;53.530;-6.312;2022-07-11T07:41:12;7.43;;;4.38;;
64342;SDS011;50675;53.530;-6.312;2022-07-11T07:43:38;7.80;;;4.13;;
64342;SDS011;50675;53.530;-6.312;2022-07-11T07:46:04;7.45;;;4.28;;
64342;SDS011;50675;53.530;-6.312;2022-07-11T07:48:30;6.82;;;3.95;;
64342;SDS011;50675;53.530;-6.312;2022-07-11T07:50:56;7.90;;;4.15;;
64342;SDS011;50675;53.530;-6.312;2022-07-11T07:53:21;5.72;;;3.95;;
64342;SDS011;50675;53.530;-6.312;2022-07-11T07:55:47;6.28;;;3.38;;
64342;SDS011;50675;53.530;-6.312;2022-07-11T07:58:14;7.93;;;3.70;;
64342;SDS011;50675;53.530;-6.312;2022-07-11T08:00:40;5.70;;;3.42;;
64342;SDS011;50675;53.530;-6.312;2022-07-11T08:03:24;5.97;;;3.45;;
64342;SDS011;50675;53.530;-6.312;2022-07-11T08:05:50;8.73;;;3.67;;
64342;SDS011;50675;53.530;-6.312;2022-07-11T08:08:16;7.60;;;3.75;;
64342;SDS011;50675;53.530;-6.312;2022-07-11T08:10:41;6.55;;;3.40;;
64342;SDS011;50675;53.530;-6.312;2022-07-11T08:13:07;10.50;;;4.50;;
64342;SDS011;50675;53.530;-6.312;2022-07-11T08:15:33;8.82;;;3.63;;
64342;SDS011;50675;53.530;-6.312;2022-07-11T08:17:59;5.47;;;3.40;;
64342;SDS011;50675;53.530;-6.312;2022-07-11T08:20:24;12.20;;;3.80;;
64342;SDS011;50675;53.530;-6.312;2022-07-11T08:22:50;7.20;;;4.05;;
64342;SDS011;50675;53.530;-6.312;2022-07-11T08:25:16;7.55;;;3.72;;
64342;SDS011;50675;53.530;-6.312;2022-07-11T08:27:42;11.45;;;4.10;;
64342;SDS011;50675;53.530;-6.312;2022-07-11T08:30:08;8.80;;;3.42;;
64342;SDS011;50675;53.530;-6.312;2022-07-11T08:32:43;7.88;;;3.20;;
64342;SDS011;50675;53.530;-6.312;2022-07-11T08:35:12;9.13;;;3.58;;
64342;SDS011;50675;53.530;-6.312;2022-07-11T08:37:41;12.20;;;3.70;;
64342;SDS011;50675;53.530;-6.312;2022-07-11T08:40:07;7.35;;;3.63;;
64342;SDS011;50675;53.530;-6.312;2022-07-11T08:42:37;15.18;;;3.55;;
64342;SDS011;50675;53.530;-6.312;2022-07-11T08:45:14;7.95;;;3.33;;
64342;SDS011;50675;53.530;-6.312;2022-07-11T08:47:41;12.38;;;3.33;;
64342;SDS011;50675;53.530;-6.312;2022-07-11T08:50:11;13.02;;;3.60;;
64342;SDS011;50675;53.530;-6.312;2022-07-11T08:52:38;8.70;;;3.10;;
64342;SDS011;50675;53.530;-6.312;2022-07-11T08:55:04;11.10;;;3.20;;
64342;SDS011;50675;53.530;-6.312;2022-07-11T08:57:34;5.43;;;3.30;;
64342;SDS011;50675;53.530;-6.312;2022-07-11T09:00:00;7.63;;;3.00;;
64342;SDS011;50675;53.530;-6.312;2022-07-11T09:02:30;5.65;;;2.85;;
64342;SDS011;50675;53.530;-6.312;2022-07-11T09:04:58;7.85;;;3.17;;
64342;SDS011;50675;53.530;-6.312;2022-07-11T09:07:25;7.75;;;3.22;;
64342;SDS011;50675;53.530;-6.312;2022-07-11T09:09:52;7.18;;;3.47;;
64342;SDS011;50675;53.530;-6.312;2022-07-11T09:12:18;7.78;;;2.70;;
64342;SDS011;50675;53.530;-6.312;2022-07-11T09:14:46;6.15;;;3.00;;
64342;SDS011;50675;53.530;-6.312;2022-07-11T09:17:13;4.47;;;2.50;;
64342;SDS011;50675;53.530;-6.312;2022-07-11T09:19:39;5.80;;;3.28;;
64342;SDS011;50675;53.530;-6.312;2022-07-11T09:25:01;7.68;;;3.28;;
64342;SDS011;50675;53.530;-6.312;2022-07-11T09:27:59;6.80;;;3.08;;
64342;SDS011;50675;53.530;-6.312;2022-07-11T09:30:27;6.25;;;3.30;;
64342;SDS011;50675;53.530;-6.312;2022-07-11T09:32:56;7.03;;;3.30;;
64342;SDS011;50675;53.530;-6.312;2022-07-11T09:35:23;8.95;;;3.30;;
64342;SDS011;50675;53.530;-6.312;2022-07-11T09:37:51;7.50;;;3.28;;
64342;SDS011;50675;53.530;-6.312;2022-07-11T09:40:17;10.20;;;3.22;;
64342;SDS011;50675;53.530;-6.312;2022-07-11T09:42:47;6.40;;;2.85;;
64342;SDS011;50675;53.530;-6.312;2022-07-11T09:45:18;5.25;;;3.35;;
64342;SDS011;50675;53.530;-6.312;2022-07-11T09:47:49;5.93;;;3.10;;
64342;SDS011;50675;53.530;-6.312;2022-07-11T09:50:19;6.03;;;2.90;;
64342;SDS011;50675;53.530;-6.312;2022-07-11T09:55:39;7.13;;;2.70;;
64342;SDS011;50675;53.530;-6.312;2022-07-11T09:58:10;5.30;;;3.20;;
64342;SDS011;50675;53.530;-6.312;2022-07-11T10:00:37;5.35;;;2.67;;
64342;SDS011;50675;53.530;-6.312;2022-07-11T10:03:05;4.88;;;2.35;;
64342;SDS011;50675;53.530;-6.312;2022-07-11T10:05:32;6.40;;;2.80;;
64342;SDS011;50675;53.530;-6.312;2022-07-11T10:07:58;6.70;;;2.55;;
64342;SDS011;50675;53.530;-6.312;2022-07-11T10:10:25;5.18;;;2.97;;
64342;SDS011;50675;53.530;-6.312;2022-07-11T10:12:53;5.57;;;2.55;;
64342;SDS011;50675;53.530;-6.312;2022-07-11T10:15:30;5.65;;;2.72;;
64342;SDS011;50675;53.530;-6.312;2022-07-11T10:18:14;5.00;;;2.45;;
64342;SDS011;50675;53.530;-6.312;2022-07-11T10:31:35;4.72;;;2.90;;
64342;SDS011;50675;53.530;-6.312;2022-07-11T10:34:05;4.40;;;2.55;;
64342;SDS011;50675;53.530;-6.312;2022-07-11T10:36:33;5.97;;;2.58;;
64342;SDS011;50675;53.530;-6.312;2022-07-11T10:41:59;4.18;;;2.05;;
64342;SDS011;50675;53.530;-6.312;2022-07-11T10:44:26;5.75;;;2.20;;
64342;SDS011;50675;53.530;-6.312;2022-07-11T10:50:26;4.13;;;2.40;;
64342;SDS011;50675;53.530;-6.312;2022-07-11T10:52:56;3.15;;;2.17;;
64342;SDS011;50675;53.530;-6.312;2022-07-11T10:55:43;2.67;;;1.95;;
64342;SDS011;50675;53.530;-6.312;2022-07-11T10:58:19;3.42;;;2.22;;
64342;SDS011;50675;53.530;-6.312;2022-07-11T11:01:14;3.47;;;2.40;;
64342;SDS011;50675;53.530;-6.312;2022-07-11T11:03:38;4.20;;;2.30;;
64342;SDS011;50675;53.530;-6.312;2022-07-11T11:06:05;5.63;;;2.50;;
64342;SDS011;50675;53.530;-6.312;2022-07-11T11:10:57;4.70;;;2.60;;
64342;SDS011;50675;53.530;-6.312;2022-07-11T11:13:25;5.68;;;2.50;;
64342;SDS011;50675;53.530;-6.312;2022-07-11T11:15:52;6.97;;;2.85;;
64342;SDS011;50675;53.530;-6.312;2022-07-11T11:23:29;3.92;;;2.60;;
64342;SDS011;50675;53.530;-6.312;2022-07-11T11:26:05;4.53;;;2.38;;
64342;SDS011;50675;53.530;-6.312;2022-07-11T11:28:38;3.72;;;2.47;;
64342;SDS011;50675;53.530;-6.312;2022-07-11T11:31:19;4.10;;;2.33;;
64342;SDS011;50675;53.530;-6.312;2022-07-11T11:33:45;4.10;;;2.38;;
64342;SDS011;50675;53.530;-6.312;2022-07-11T11:36:15;5.57;;;2.58;;
64342;SDS011;50675;53.530;-6.312;2022-07-11T11:38:43;3.90;;;1.90;;
64342;SDS011;50675;53.530;-6.312;2022-07-11T11:41:10;3.58;;;2.17;;
64342;SDS011;50675;53.530;-6.312;2022-07-11T11:43:41;7.78;;;2.92;;
64342;SDS011;50675;53.530;-6.312;2022-07-11T11:46:11;7.55;;;2.45;;
64342;SDS011;50675;53.530;-6.312;2022-07-11T11:48:39;7.60;;;2.60;;
64342;SDS011;50675;53.530;-6.312;2022-07-11T11:51:11;6.40;;;2.58;;
64342;SDS011;50675;53.530;-6.312;2022-07-11T11:53:45;5.43;;;2.67;;
64342;SDS011;50675;53.530;-6.312;2022-07-11T12:01:12;5.85;;;2.60;;
64342;SDS011;50675;53.530;-6.312;2022-07-11T12:06:24;5.20;;;2.63;;
64342;SDS011;50675;53.530;-6.312;2022-07-11T12:09:10;3.90;;;2.22;;
64342;SDS011;50675;53.530;-6.312;2022-07-11T12:11:42;5.43;;;2.50;;
64342;SDS011;50675;53.530;-6.312;2022-07-11T12:14:09;6.05;;;2.30;;
64342;SDS011;50675;53.530;-6.312;2022-07-11T12:16:41;4.30;;;1.95;;
64342;SDS011;50675;53.530;-6.312;2022-07-11T12:19:15;4.70;;;2.30;;
64342;SDS011;50675;53.530;-6.312;2022-07-11T12:21:44;4.07;;;2.30;;
64342;SDS011;50675;53.530;-6.312;2022-07-11T12:24:12;4.88;;;2.40;;
64342;SDS011;50675;53.530;-6.312;2022-07-11T12:26:41;3.75;;;2.53;;
64342;SDS011;50675;53.530;-6.312;2022-07-11T12:29:09;3.75;;;2.08;;
64342;SDS011;50675;53.530;-6.312;2022-07-11T12:31:48;4.63;;;1.90;;
64342;SDS011;50675;53.530;-6.312;2022-07-11T12:39:30;6.28;;;2.40;;
64342;SDS011;50675;53.530;-6.312;2022-07-11T12:41:59;5.68;;;2.60;;
64342;SDS011;50675;53.530;-6.312;2022-07-11T12:44:26;9.43;;;3.17;;
64342;SDS011;50675;53.530;-6.312;2022-07-11T12:47:13;5.72;;;2.47;;
64342;SDS011;50675;53.530;-6.312;2022-07-11T12:49:40;9.07;;;2.70;;
64342;SDS011;50675;53.530;-6.312;2022-07-11T12:52:10;5.25;;;2.10;;
64342;SDS011;50675;53.530;-6.312;2022-07-11T12:54:36;5.35;;;2.70;;
64342;SDS011;50675;53.530;-6.312;2022-07-11T12:57:02;4.97;;;2.80;;
64342;SDS011;50675;53.530;-6.312;2022-07-11T12:59:29;5.72;;;2.40;;
64342;SDS011;50675;53.530;-6.312;2022-07-11T13:02:12;3.88;;;2.40;;
64342;SDS011;50675;53.530;-6.312;2022-07-11T13:04:39;6.05;;;2.70;;
64342;SDS011;50675;53.530;-6.312;2022-07-11T13:10:25;7.97;;;2.67;;
64342;SDS011;50675;53.530;-6.312;2022-07-11T13:12:53;4.72;;;2.42;;
64342;SDS011;50675;53.530;-6.312;2022-07-11T13:15:20;4.50;;;2.20;;
64342;SDS011;50675;53.530;-6.312;2022-07-11T13:17:49;7.22;;;2.50;;
64342;SDS011;50675;53.530;-6.312;2022-07-11T13:20:20;6.35;;;2.20;;
64342;SDS011;50675;53.530;-6.312;2022-07-11T13:22:48;6.95;;;2.33;;
64342;SDS011;50675;53.530;-6.312;2022-07-11T13:25:15;3.80;;;2.15;;
64342;SDS011;50675;53.530;-6.312;2022-07-11T13:27:43;3.88;;;2.20;;
64342;SDS011;50675;53.530;-6.312;2022-07-11T13:30:11;4.88;;;2.28;;
64342;SDS011;50675;53.530;-6.312;2022-07-11T13:32:45;5.65;;;2.08;;
64342;SDS011;50675;53.530;-6.312;2022-07-11T13:35:12;5.43;;;2.13;;
64342;SDS011;50675;53.530;-6.312;2022-07-11T13:37:38;5.53;;;2.60;;
64342;SDS011;50675;53.530;-6.312;2022-07-11T13:40:07;3.95;;;2.10;;
64342;SDS011;50675;53.530;-6.312;2022-07-11T13:42:35;3.92;;;2.20;;
64342;SDS011;50675;53.530;-6.312;2022-07-11T13:45:02;5.85;;;2.10;;
64342;SDS011;50675;53.530;-6.312;2022-07-11T13:47:29;4.50;;;2.17;;
64342;SDS011;50675;53.530;-6.312;2022-07-11T13:49:55;3.80;;;2.30;;
64342;SDS011;50675;53.530;-6.312;2022-07-11T13:52:21;5.45;;;2.10;;
64342;SDS011;50675;53.530;-6.312;2022-07-11T13:54:47;4.88;;;2.20;;
64342;SDS011;50675;53.530;-6.312;2022-07-11T13:57:13;6.68;;;2.85;;
64342;SDS011;50675;53.530;-6.312;2022-07-11T13:59:39;6.40;;;2.50;;
64342;SDS011;50675;53.530;-6.312;2022-07-11T14:02:05;4.18;;;2.28;;
64342;SDS011;50675;53.530;-6.312;2022-07-11T14:04:31;5.45;;;2.25;;
64342;SDS011;50675;53.530;-6.312;2022-07-11T14:06:57;3.22;;;2.05;;
64342;SDS011;50675;53.530;-6.312;2022-07-11T14:09:24;3.60;;;2.13;;
64342;SDS011;50675;53.530;-6.312;2022-07-11T14:11:50;11.38;;;2.50;;
64342;SDS011;50675;53.530;-6.312;2022-07-11T14:14:16;4.53;;;2.28;;
64342;SDS011;50675;53.530;-6.312;2022-07-11T14:16:42;5.00;;;2.45;;
64342;SDS011;50675;53.530;-6.312;2022-07-11T14:19:08;3.72;;;2.13;;
64342;SDS011;50675;53.530;-6.312;2022-07-11T14:21:36;3.70;;;2.20;;
64342;SDS011;50675;53.530;-6.312;2022-07-11T14:24:03;2.97;;;1.92;;
64342;SDS011;50675;53.530;-6.312;2022-07-11T14:26:29;3.33;;;2.33;;
64342;SDS011;50675;53.530;-6.312;2022-07-11T14:28:55;4.40;;;2.10;;
64342;SDS011;50675;53.530;-6.312;2022-07-11T14:31:21;3.60;;;2.33;;
64342;SDS011;50675;53.530;-6.312;2022-07-11T14:33:49;3.15;;;1.90;;
64342;SDS011;50675;53.530;-6.312;2022-07-11T14:36:18;3.38;;;2.20;;
64342;SDS011;50675;53.530;-6.312;2022-07-11T14:38:51;3.83;;;2.00;;
64342;SDS011;50675;53.530;-6.312;2022-07-11T14:41:26;3.30;;;2.17;;
64342;SDS011;50675;53.530;-6.312;2022-07-11T14:43:52;5.70;;;2.00;;
64342;SDS011;50675;53.530;-6.312;2022-07-11T14:46:18;4.63;;;2.20;;
64342;SDS011;50675;53.530;-6.312;2022-07-11T14:48:43;4.65;;;1.80;;
64342;SDS011;50675;53.530;-6.312;2022-07-11T14:51:14;4.25;;;2.53;;
64342;SDS011;50675;53.530;-6.312;2022-07-11T14:53:40;3.90;;;2.20;;
64342;SDS011;50675;53.530;-6.312;2022-07-11T14:56:06;3.17;;;1.80;;
64342;SDS011;50675;53.530;-6.312;2022-07-11T14:58:35;4.63;;;1.90;;
64342;SDS011;50675;53.530;-6.312;2022-07-11T15:01:04;3.85;;;1.45;;
64342;SDS011;50675;53.530;-6.312;2022-07-11T15:03:29;3.75;;;1.48;;
64342;SDS011;50675;53.530;-6.312;2022-07-11T15:06:05;3.28;;;1.50;;
64342;SDS011;50675;53.530;-6.312;2022-07-11T15:08:32;3.28;;;1.73;;
64342;SDS011;50675;53.530;-6.312;2022-07-11T15:11:16;3.17;;;1.70;;
64342;SDS011;50675;53.530;-6.312;2022-07-11T15:13:48;4.45;;;1.90;;
64342;SDS011;50675;53.530;-6.312;2022-07-11T15:16:14;3.50;;;1.40;;
64342;SDS011;50675;53.530;-6.312;2022-07-11T15:18:40;3.97;;;1.50;;
64342;SDS011;50675;53.530;-6.312;2022-07-11T15:21:06;4.45;;;1.92;;
64342;SDS011;50675;53.530;-6.312;2022-07-11T15:23:32;4.32;;;1.70;;
64342;SDS011;50675;53.530;-6.312;2022-07-11T15:25:58;3.85;;;1.80;;